createdAt,value
2019-01-23T00:01:44.454Z,-3.17
2019-01-23T00:06:51.582Z,-3.19
2019-01-23T00:11:56.850Z,-3.20
2019-01-23T00:17:02.058Z,-3.18
2019-01-23T00:22:07.206Z,-3.19
2019-01-23T00:27:12.332Z,-3.15
2019-01-23T00:32:17.634Z,-3.16
2019-01-23T00:37:23.554Z,-3.18
2019-01-23T00:42:29.461Z,-3.18
2019-01-23T00:47:34.594Z,-3.21
2019-01-23T00:52:39.730Z,-3.22
2019-01-23T00:57:44.914Z,-3.24
2019-01-23T01:02:50.057Z,-3.27
2019-01-23T01:07:55.374Z,-3.25
2019-01-23T01:13:00.469Z,-3.21
2019-01-23T01:18:05.962Z,-3.22
2019-01-23T01:23:11.261Z,-3.20
2019-01-23T01:28:19.578Z,-3.25
2019-01-23T01:33:24.778Z,-3.27
2019-01-23T01:38:29.866Z,-3.28
2019-01-23T01:43:38.180Z,-3.30
2019-01-23T01:48:43.732Z,-3.29
2019-01-23T01:53:48.838Z,-3.30
2019-01-23T01:58:53.992Z,-3.32
2019-01-23T02:04:00.176Z,-3.38
2019-01-23T02:09:08.630Z,-3.43
2019-01-23T02:14:14.743Z,-3.44
2019-01-23T02:19:19.948Z,-3.34
2019-01-23T02:24:25.146Z,-3.34
2019-01-23T02:29:30.268Z,-3.48
2019-01-23T02:34:35.672Z,-3.55
2019-01-23T02:39:40.970Z,-3.54
2019-01-23T02:44:46.179Z,-3.65
2019-01-23T02:49:51.591Z,-3.76
2019-01-23T02:54:56.641Z,-3.76
2019-01-23T03:00:01.666Z,-3.75
2019-01-23T03:05:10.548Z,-3.72
2019-01-23T03:10:18.059Z,-3.69
2019-01-23T03:15:23.123Z,-3.73
2019-01-23T03:20:30.685Z,-3.75
2019-01-23T03:25:36.993Z,-3.85
2019-01-23T03:30:44.117Z,-3.93
2019-01-23T03:35:49.725Z,-3.97
2019-01-23T03:40:57.524Z,-3.97
2019-01-23T03:46:03.119Z,-3.93
2019-01-23T03:51:09.007Z,-3.94
2019-01-23T03:56:14.895Z,-3.96
2019-01-23T04:01:20.683Z,-3.98
2019-01-23T04:06:27.003Z,-3.97
2019-01-23T04:11:32.813Z,-4.05
2019-01-23T04:16:38.994Z,-4.04
2019-01-23T04:21:55.179Z,-4.06
2019-01-23T04:26:58.508Z,-4.07
2019-01-23T04:32:04.947Z,-4.17
2019-01-23T04:37:24.888Z,-4.15
2019-01-23T04:42:45.903Z,-4.20
2019-01-23T04:47:52.035Z,-4.19
2019-01-23T04:53:17.339Z,-4.26
2019-01-23T04:58:23.232Z,-4.27
2019-01-23T05:03:44.448Z,-4.26
2019-01-23T05:09:01.904Z,-4.22
2019-01-23T05:14:12.282Z,-4.23
2019-01-23T05:19:23.091Z,-4.23
2019-01-23T05:24:30.535Z,-4.23
2019-01-23T05:29:55.062Z,-4.23
2019-01-23T05:35:02.995Z,-4.30
2019-01-23T05:40:28.365Z,-4.37
2019-01-23T05:45:33.790Z,-4.35
2019-01-23T05:50:39.174Z,-4.40
2019-01-23T05:55:49.338Z,-4.39
2019-01-23T06:01:08.066Z,-4.46
2019-01-23T06:06:29.776Z,-4.43
2019-01-23T06:11:45.992Z,-4.44
2019-01-23T06:16:51.699Z,-4.40
2019-01-23T06:22:00.927Z,-4.38
2019-01-23T06:27:19.474Z,-4.46
2019-01-23T06:32:32.631Z,-4.54
2019-01-23T06:37:38.139Z,-4.49
2019-01-23T06:42:50.678Z,-4.49
2019-01-23T06:48:02.880Z,-4.49
2019-01-23T06:53:14.043Z,-4.49
2019-01-23T06:58:15.715Z,-4.62
2019-01-23T07:03:21.157Z,-4.67
2019-01-23T07:08:28.577Z,-4.59
2019-01-23T07:13:42.189Z,-4.56
2019-01-23T07:18:47.492Z,-4.57
2019-01-23T07:23:52.738Z,-4.65
2019-01-23T07:28:58.049Z,-4.62
2019-01-23T07:34:07.793Z,-4.67
2019-01-23T07:39:14.587Z,-4.64
2019-01-23T07:44:20.735Z,-4.83
2019-01-23T07:49:25.913Z,-4.77
2019-01-23T07:54:36.124Z,-4.67
2019-01-23T07:59:41.392Z,-4.68
2019-01-23T08:04:46.599Z,-4.67
2019-01-23T08:09:51.749Z,-4.63
2019-01-23T08:15:00.184Z,-4.55
2019-01-23T08:20:07.445Z,-4.39
2019-01-23T08:25:17.035Z,-4.35
2019-01-23T08:30:25.494Z,-4.25
2019-01-23T08:35:40.250Z,-4.14
2019-01-23T08:40:45.534Z,-4.00
2019-01-23T08:45:50.858Z,-3.85
2019-01-23T08:50:56.313Z,-3.82
2019-01-23T08:56:02.101Z,-3.59
2019-01-23T09:01:08.001Z,-3.54
2019-01-23T09:06:13.431Z,-3.71
2019-01-23T09:11:18.753Z,-3.78
2019-01-23T09:16:24.419Z,-3.72
2019-01-23T09:21:32.475Z,-3.51
2019-01-23T09:26:42.137Z,-3.53
2019-01-23T09:32:47.433Z,-3.42
2019-01-23T09:38:18.919Z,-3.34
2019-01-23T09:43:52.474Z,-3.21
2019-01-23T09:49:37.678Z,-3.04
2019-01-23T09:54:54.247Z,-2.89
2019-01-23T10:00:07.351Z,-2.65
2019-01-23T10:05:13.736Z,-2.95
2019-01-23T10:10:19.397Z,-2.64
2019-01-23T10:16:13.032Z,-2.46
2019-01-23T10:21:18.321Z,-2.32
2019-01-23T10:26:23.634Z,-2.40
2019-01-23T10:31:29.929Z,-2.40
2019-01-23T10:36:37.205Z,-2.45
2019-01-23T10:41:52.593Z,-2.34
2019-01-23T10:46:58.996Z,-2.22
2019-01-23T10:52:05.593Z,-1.73
2019-01-23T10:57:11.464Z,-1.77
2019-01-23T11:02:16.731Z,-1.55
2019-01-23T11:07:27.113Z,-1.32
2019-01-23T11:12:32.937Z,-1.20
2019-01-23T11:17:38.238Z,-1.11
2019-01-23T11:22:52.459Z,-0.63
2019-01-23T11:27:59.596Z,-0.21
2019-01-23T11:33:05.021Z,0.48
2019-01-23T11:38:10.712Z,1.01
2019-01-23T11:43:15.804Z,1.85
2019-01-23T11:48:20.921Z,3.01
2019-01-23T11:53:28.649Z,2.96
2019-01-23T11:58:35.452Z,2.95
2019-01-23T12:03:40.691Z,2.80
2019-01-23T12:08:46.297Z,2.68
2019-01-23T12:13:51.381Z,2.52
2019-01-23T12:18:56.382Z,1.39
2019-01-23T12:24:03.141Z,1.50
2019-01-23T12:29:08.196Z,1.41
2019-01-23T12:34:13.292Z,1.23
2019-01-23T12:39:22.249Z,0.56
2019-01-23T12:44:27.505Z,0.10
2019-01-23T12:49:36.896Z,0.26
2019-01-23T12:54:42.569Z,1.03
2019-01-23T12:59:48.395Z,0.25
2019-01-23T13:04:53.611Z,0.06
2019-01-23T13:10:00.999Z,0.17
2019-01-23T13:15:10.967Z,0.69
2019-01-23T13:20:21.707Z,0.13
2019-01-23T13:25:28.922Z,0.11
2019-01-23T13:30:35.413Z,0.37
2019-01-23T13:35:43.387Z,0.56
2019-01-23T13:40:48.657Z,0.00
2019-01-23T13:45:58.285Z,-0.12
2019-01-23T13:51:04.577Z,-0.63
2019-01-23T13:56:11.019Z,-0.46
2019-01-23T14:01:19.707Z,-0.59
2019-01-23T14:06:25.119Z,-0.51
2019-01-23T14:11:41.846Z,-0.80
2019-01-23T14:16:48.533Z,-0.49
2019-01-23T14:21:59.540Z,-0.36
2019-01-23T14:27:16.899Z,-0.55
2019-01-23T14:32:22.099Z,-1.17
2019-01-23T14:37:29.305Z,-1.34
2019-01-23T14:42:39.799Z,-1.28
2019-01-23T14:47:49.625Z,-1.54
2019-01-23T14:52:55.635Z,-1.52
2019-01-23T14:58:04.788Z,-1.51
2019-01-23T15:03:24.081Z,-1.68
2019-01-23T15:08:29.553Z,-1.81
2019-01-23T15:13:40.080Z,-1.88
2019-01-23T15:18:53.470Z,-2.07
2019-01-23T15:24:18.019Z,-2.17
2019-01-23T15:29:37.955Z,-2.18
2019-01-23T15:34:47.291Z,-2.25
2019-01-23T15:39:55.452Z,-2.35
2019-01-23T15:45:01.318Z,-2.29
2019-01-23T15:50:33.445Z,-2.57
2019-01-23T15:56:09.097Z,-2.88
2019-01-23T16:01:25.315Z,-2.93
2019-01-23T16:06:32.625Z,-3.04
2019-01-23T16:11:58.829Z,-3.10
2019-01-23T16:17:23.536Z,-3.13
2019-01-23T16:22:28.983Z,-3.13
2019-01-23T16:27:35.782Z,-3.25
2019-01-23T16:32:45.593Z,-3.33
2019-01-23T16:38:11.584Z,-3.54
2019-01-23T16:43:44.299Z,-3.54
2019-01-23T16:48:56.357Z,-3.54
2019-01-23T16:54:06.203Z,-3.52
2019-01-23T16:59:15.954Z,-3.76
2019-01-23T17:04:21.600Z,-3.92
2019-01-23T17:09:28.402Z,-3.93
2019-01-23T17:14:37.121Z,-3.90
2019-01-23T17:19:53.652Z,-3.83
2019-01-23T17:25:07.731Z,-3.79
2019-01-23T17:30:27.358Z,-3.92
2019-01-23T17:35:49.906Z,-4.01
2019-01-23T17:41:01.426Z,-4.06
2019-01-23T17:46:11.209Z,-4.31
2019-01-23T17:51:22.582Z,-4.11
2019-01-23T17:56:31.306Z,-4.29
2019-01-23T18:01:36.905Z,-4.47
2019-01-23T18:07:06.798Z,-4.37
2019-01-23T18:12:15.025Z,-4.27
2019-01-23T18:17:23.123Z,-4.34
2019-01-23T18:22:32.236Z,-4.40
2019-01-23T18:27:38.207Z,-4.50
2019-01-23T18:32:44.566Z,-4.46
2019-01-23T18:38:35.583Z,-4.44
2019-01-23T18:44:39.793Z,-4.61
2019-01-23T18:50:37.276Z,-4.67
2019-01-23T18:56:01.425Z,-4.62
2019-01-23T19:01:09.341Z,-4.45
2019-01-23T19:06:26.229Z,-4.45
2019-01-23T19:17:11.987Z,-3.81
2019-01-23T19:22:21.945Z,-3.93
2019-01-23T19:27:28.431Z,-3.98
2019-01-23T19:32:49.425Z,-4.02
2019-01-23T19:38:02.413Z,-4.06
2019-01-23T19:43:08.339Z,-4.06
2019-01-23T19:48:14.052Z,-4.03
2019-01-23T19:53:19.503Z,-4.02
2019-01-23T19:58:24.798Z,-3.96
2019-01-23T20:03:30.014Z,-3.88
2019-01-23T20:08:52.347Z,-3.82
2019-01-23T20:14:16.139Z,-3.71
2019-01-23T20:19:21.547Z,-3.67
2019-01-23T20:24:28.061Z,-3.61
2019-01-23T20:29:34.495Z,-3.62
2019-01-23T20:34:43.081Z,-3.62
2019-01-23T20:39:53.869Z,-3.55
2019-01-23T20:44:59.097Z,-3.52
2019-01-23T20:50:06.269Z,-3.51
2019-01-23T20:55:11.396Z,-3.46
2019-01-23T21:01:05.988Z,-3.51
2019-01-23T21:12:39.651Z,-3.42
2019-01-23T21:17:54.747Z,-3.41
2019-01-23T21:23:07.356Z,-3.37
2019-01-23T21:28:35.202Z,-3.39
2019-01-23T21:34:07.927Z,-3.36
2019-01-23T21:39:52.627Z,-3.32
2019-01-23T21:45:02.441Z,-3.30
2019-01-23T21:50:10.209Z,-3.31
2019-01-23T21:55:21.479Z,-3.29
2019-01-23T22:00:58.940Z,-3.27
2019-01-23T22:06:04.723Z,-3.27
2019-01-23T22:11:09.835Z,-3.26
2019-01-23T22:16:17.702Z,-3.26
2019-01-23T22:21:22.828Z,-3.26
2019-01-23T22:26:29.384Z,-3.28
2019-01-23T22:31:35.664Z,-3.33
2019-01-23T22:36:40.736Z,-3.26
2019-01-23T22:41:48.994Z,-3.26
2019-01-23T22:46:54.095Z,-3.33
2019-01-23T22:51:59.290Z,-3.41
2019-01-23T22:57:04.352Z,-3.47
2019-01-23T23:02:09.483Z,-3.48
2019-01-23T23:07:14.548Z,-3.55
2019-01-23T23:12:19.764Z,-3.58
2019-01-23T23:17:24.816Z,-3.58
2019-01-23T23:22:29.911Z,-3.67
2019-01-23T23:27:39.354Z,-3.66
2019-01-23T23:32:41.764Z,-3.68
2019-01-23T23:37:46.935Z,-3.69
2019-01-23T23:42:52.105Z,-3.72
2019-01-23T23:47:57.384Z,-3.67
2019-01-23T23:53:02.398Z,-3.66
2019-01-23T23:58:08.593Z,-3.77
